createdAt,value
2018-12-16T00:00:26.157Z,100356.13
2018-12-16T00:02:52.523Z,100340.42
2018-12-16T00:05:19.222Z,100337.34
2018-12-16T00:07:45.341Z,100335.29
2018-12-16T00:10:11.532Z,100327.02
2018-12-16T00:12:37.775Z,100323.81
2018-12-16T00:15:04.724Z,100324.09
2018-12-16T00:17:31.049Z,100325.73
2018-12-16T00:19:57.205Z,100320.33
2018-12-16T00:22:29.892Z,100312.44
2018-12-16T00:24:53.047Z,100307.12
2018-12-16T00:27:19.188Z,100302.16
2018-12-16T00:29:45.734Z,100295.09
2018-12-16T00:32:11.890Z,100300.64
2018-12-16T00:34:38.186Z,100299.62
2018-12-16T00:37:04.504Z,100305.91
2018-12-16T00:39:30.612Z,100314.81
2018-12-16T00:41:56.889Z,100318.52
2018-12-16T00:44:23.513Z,100315.84
2018-12-16T00:46:49.880Z,100306.33
2018-12-16T00:49:16.053Z,100295.30
2018-12-16T00:51:42.281Z,100295.72
2018-12-16T00:54:08.610Z,100298.09
2018-12-16T00:56:34.840Z,100293.41
2018-12-16T00:59:01.200Z,100291.05
2018-12-16T01:01:27.617Z,100280.23
2018-12-16T01:03:54.255Z,100286.61
2018-12-16T01:06:20.538Z,100281.93
2018-12-16T01:08:46.821Z,100270.23
2018-12-16T01:11:13.274Z,100275.01
2018-12-16T01:13:39.569Z,100274.27
2018-12-16T01:16:06.002Z,100272.16
2018-12-16T01:18:32.390Z,100275.58
2018-12-16T01:20:58.688Z,100270.16
2018-12-16T01:23:24.821Z,100269.22
2018-12-16T01:25:51.152Z,100260.77
2018-12-16T01:28:17.353Z,100257.83
2018-12-16T01:30:43.830Z,100256.11
2018-12-16T01:33:09.964Z,100252.80
2018-12-16T01:35:36.050Z,100249.77
2018-12-16T01:38:02.270Z,100235.12
2018-12-16T01:40:28.444Z,100231.17
2018-12-16T01:42:54.821Z,100229.74
2018-12-16T01:45:21.168Z,100224.59
2018-12-16T01:47:47.295Z,100215.21
2018-12-16T01:50:13.534Z,100214.47
2018-12-16T01:52:39.628Z,100202.34
2018-12-16T01:55:07.914Z,100199.11
2018-12-16T01:57:34.266Z,100200.89
2018-12-16T02:00:00.527Z,100209.69
2018-12-16T02:02:26.950Z,100197.03
2018-12-16T02:04:53.305Z,100195.31
2018-12-16T02:07:19.716Z,100201.07
2018-12-16T02:09:46.117Z,100193.36
2018-12-16T02:12:12.314Z,100192.11
2018-12-16T02:14:38.486Z,100196.84
2018-12-16T02:17:04.802Z,100195.03
2018-12-16T02:19:38.056Z,100181.87
2018-12-16T02:22:04.425Z,100186.44
2018-12-16T02:24:30.619Z,100180.02
2018-12-16T02:26:56.953Z,100184.59
2018-12-16T02:29:23.074Z,100093.56
2018-12-16T02:31:49.406Z,100184.30
2018-12-16T02:34:15.615Z,100189.36
2018-12-16T02:36:41.760Z,100188.59
2018-12-16T02:39:15.021Z,100181.14
2018-12-16T02:41:41.202Z,100176.41
2018-12-16T02:44:07.315Z,100168.75
2018-12-16T02:46:33.805Z,100170.41
2018-12-16T02:49:00.014Z,100165.25
2018-12-16T02:51:26.345Z,100168.53
2018-12-16T02:53:52.574Z,100163.98
2018-12-16T02:56:18.790Z,100166.02
2018-12-16T02:58:45.009Z,100167.22
2018-12-16T03:01:11.186Z,100162.72
2018-12-16T03:03:37.378Z,100156.86
2018-12-16T03:06:03.591Z,100158.09
2018-12-16T03:08:29.814Z,100159.29
2018-12-16T03:10:56.061Z,100155.91
2018-12-16T03:13:22.292Z,100152.34
2018-12-16T03:15:48.538Z,100152.31
2018-12-16T03:18:14.740Z,100154.77
2018-12-16T03:20:42.829Z,100151.23
2018-12-16T03:23:12.429Z,100144.55
2018-12-16T03:25:37.525Z,100145.87
2018-12-16T03:28:03.717Z,100135.59
2018-12-16T03:30:29.951Z,100134.30
2018-12-16T03:32:56.197Z,100131.98
2018-12-16T03:35:22.405Z,100131.14
2018-12-16T03:37:48.636Z,100121.95
2018-12-16T03:40:14.803Z,100118.86
2018-12-16T03:42:40.925Z,100113.55
2018-12-16T03:45:07.243Z,100115.19
2018-12-16T03:47:33.477Z,100105.61
2018-12-16T03:49:59.710Z,100105.80
2018-12-16T03:52:25.900Z,100099.48
2018-12-16T03:54:52.240Z,100097.69
2018-12-16T03:57:18.572Z,100094.97
2018-12-16T03:59:44.707Z,100084.02
2018-12-16T04:02:10.917Z,100088.73
2018-12-16T04:04:37.175Z,100086.27
2018-12-16T04:07:03.517Z,100086.59
2018-12-16T04:09:29.749Z,100081.34
2018-12-16T04:11:55.865Z,100068.00
2018-12-16T04:14:22.208Z,100076.95
2018-12-16T04:16:48.343Z,100071.58
2018-12-16T04:19:14.586Z,100062.62
2018-12-16T04:21:40.867Z,100055.95
2018-12-16T04:24:06.970Z,100057.14
2018-12-16T04:26:33.289Z,100056.89
2018-12-16T04:28:59.407Z,100051.96
2018-12-16T04:31:25.622Z,100051.56
2018-12-16T04:33:51.887Z,100051.52
2018-12-16T04:36:18.089Z,100043.34
2018-12-16T04:38:44.416Z,100034.14
2018-12-16T04:41:10.574Z,100028.98
2018-12-16T04:43:36.826Z,100030.17
2018-12-16T04:46:03.104Z,100032.71
2018-12-16T04:48:29.232Z,100029.09
2018-12-16T04:50:55.401Z,100028.11
2018-12-16T04:53:21.508Z,100026.09
2018-12-16T04:55:47.633Z,100021.52
2018-12-16T04:58:13.727Z,100020.42
2018-12-16T05:00:40.015Z,100019.41
2018-12-16T05:03:06.255Z,100014.16
2018-12-16T05:05:32.478Z,100009.84
2018-12-16T05:07:59.024Z,100012.69
2018-12-16T05:10:29.655Z,100005.64
2018-12-16T05:12:56.272Z,99999.86
2018-12-16T05:15:22.683Z,99997.06
2018-12-16T05:17:49.118Z,99996.22
2018-12-16T05:20:15.532Z,99983.22
2018-12-16T05:22:41.657Z,99986.27
2018-12-16T05:25:07.982Z,99984.38
2018-12-16T05:27:34.209Z,99982.33
2018-12-16T05:30:00.544Z,99977.78
2018-12-16T05:32:26.648Z,99971.30
2018-12-16T05:34:52.993Z,99969.06
2018-12-16T05:37:21.365Z,99974.19
2018-12-16T05:39:47.709Z,99979.89
2018-12-16T05:42:14.781Z,99973.83
2018-12-16T05:44:40.905Z,99980.23
2018-12-16T05:47:07.535Z,99972.67
2018-12-16T05:49:34.421Z,99979.53
2018-12-16T05:52:00.642Z,99970.61
2018-12-16T05:54:27.813Z,99971.98
2018-12-16T05:56:55.062Z,99968.55
2018-12-16T05:59:22.243Z,99968.17
2018-12-16T06:01:48.472Z,99960.16
2018-12-16T06:04:14.604Z,99951.61
2018-12-16T06:06:40.957Z,99951.55
2018-12-16T06:09:07.301Z,99939.15
2018-12-16T06:11:33.378Z,99936.30
2018-12-16T06:13:59.569Z,99927.23
2018-12-16T06:16:25.771Z,99919.08
2018-12-16T06:18:52.845Z,99918.03
2018-12-16T06:21:19.074Z,99918.80
2018-12-16T06:23:45.298Z,99920.19
2018-12-16T06:26:12.115Z,99909.27
2018-12-16T06:28:39.197Z,99921.94
2018-12-16T06:31:05.518Z,99928.47
2018-12-16T06:33:31.764Z,99933.72
2018-12-16T06:35:58.215Z,99933.03
2018-12-16T06:38:24.418Z,99934.88
2018-12-16T06:40:50.582Z,99938.83
2018-12-16T06:43:17.813Z,99941.20
2018-12-16T06:45:44.304Z,99936.09
2018-12-16T06:48:10.447Z,99935.58
2018-12-16T06:50:36.677Z,99934.41
2018-12-16T06:53:09.814Z,99937.70
2018-12-16T06:55:36.025Z,99932.30
2018-12-16T06:58:02.225Z,99920.48
2018-12-16T07:00:28.346Z,99938.41
2018-12-16T07:02:54.454Z,99951.66
2018-12-16T07:05:21.126Z,99947.77
2018-12-16T07:07:47.677Z,99940.23
2018-12-16T07:10:14.309Z,99933.98
2018-12-16T07:12:40.721Z,99939.22
2018-12-16T07:15:08.107Z,99941.92
2018-12-16T07:17:34.524Z,99941.39
2018-12-16T07:20:00.960Z,99940.07
2018-12-16T07:22:27.285Z,99948.09
2018-12-16T07:24:53.654Z,99945.11
2018-12-16T07:27:20.020Z,99936.61
2018-12-16T07:29:46.208Z,99928.19
2018-12-16T07:32:12.351Z,99924.75
2018-12-16T07:34:38.576Z,99926.14
2018-12-16T07:37:04.705Z,99915.35
2018-12-16T07:39:30.958Z,99908.75
2018-12-16T07:41:57.395Z,99914.41
2018-12-16T07:44:23.565Z,99915.42
2018-12-16T07:46:49.814Z,99902.43
2018-12-16T07:49:16.269Z,99908.20
2018-12-16T07:51:42.399Z,99907.50
2018-12-16T07:54:08.686Z,99909.55
2018-12-16T07:56:35.161Z,99900.44
2018-12-16T07:59:01.497Z,99898.64
2018-12-16T08:01:27.693Z,99895.47
2018-12-16T08:03:53.857Z,99905.48
2018-12-16T08:06:20.112Z,99898.77
2018-12-16T08:08:46.352Z,99902.19
2018-12-16T08:11:12.694Z,99890.45
2018-12-16T08:13:38.868Z,99909.39
2018-12-16T08:16:05.134Z,99903.03
2018-12-16T08:18:31.254Z,99896.62
2018-12-16T08:20:57.485Z,99887.10
2018-12-16T08:23:23.735Z,99885.05
2018-12-16T08:25:49.869Z,99892.03
2018-12-16T08:28:16.137Z,99900.05
2018-12-16T08:30:42.577Z,99892.03
2018-12-16T08:33:08.676Z,99885.31
2018-12-16T08:35:34.788Z,99885.47
2018-12-16T08:38:01.157Z,99890.56
2018-12-16T08:40:27.307Z,99889.69
2018-12-16T08:42:53.912Z,99894.83
2018-12-16T08:45:20.043Z,99897.02
2018-12-16T08:47:46.289Z,99898.81
2018-12-16T08:50:12.538Z,99898.11
2018-12-16T08:52:38.650Z,99897.06
2018-12-16T08:55:05.615Z,99895.64
2018-12-16T08:57:31.801Z,99899.55
2018-12-16T08:59:57.985Z,99897.61
2018-12-16T09:02:24.441Z,99890.36
2018-12-16T09:04:50.535Z,99884.71
2018-12-16T09:07:16.895Z,99875.97
2018-12-16T09:09:43.355Z,99878.50
2018-12-16T09:12:09.504Z,99875.36
2018-12-16T09:14:35.854Z,99866.64
2018-12-16T09:17:02.013Z,99861.49
2018-12-16T09:19:28.120Z,99863.86
2018-12-16T09:21:54.497Z,99855.26
2018-12-16T09:24:20.717Z,99850.03
2018-12-16T09:26:46.904Z,99845.30
2018-12-16T09:29:13.305Z,99847.55
2018-12-16T09:31:39.530Z,99845.50
2018-12-16T09:34:05.865Z,99840.84
2018-12-16T09:36:32.099Z,99845.67
2018-12-16T09:38:58.335Z,99841.30
2018-12-16T09:41:24.563Z,99826.77
2018-12-16T09:43:52.237Z,99837.84
2018-12-16T09:46:18.458Z,99836.64
2018-12-16T09:48:51.693Z,99835.02
2018-12-16T09:51:18.083Z,99839.73
2018-12-16T09:53:44.260Z,99838.05
2018-12-16T09:56:10.588Z,99833.63
2018-12-16T09:58:36.941Z,99823.33
2018-12-16T10:01:03.253Z,99821.38
2018-12-16T10:03:29.416Z,99825.83
2018-12-16T10:05:55.634Z,99821.98
2018-12-16T10:08:21.765Z,99822.96
2018-12-16T10:10:48.047Z,99815.54
2018-12-16T10:13:14.513Z,99816.23
2018-12-16T10:15:40.835Z,99807.98
2018-12-16T10:18:06.954Z,99810.39
2018-12-16T10:20:33.085Z,99800.12
2018-12-16T10:22:59.245Z,99793.91
2018-12-16T10:25:25.450Z,99796.16
2018-12-16T10:27:51.573Z,99800.23
2018-12-16T10:30:17.835Z,99796.22
2018-12-16T10:32:44.069Z,99802.34
2018-12-16T10:35:10.409Z,99799.61
2018-12-16T10:37:36.549Z,99797.97
2018-12-16T10:40:05.040Z,99796.10
2018-12-16T10:42:31.370Z,99787.36
2018-12-16T10:44:57.810Z,99786.34
2018-12-16T10:47:24.713Z,99785.66
2018-12-16T10:49:50.859Z,99776.89
2018-12-16T10:52:17.850Z,99778.80
2018-12-16T10:54:44.148Z,99772.78
2018-12-16T10:57:10.264Z,99766.06
2018-12-16T10:59:36.391Z,99759.31
2018-12-16T11:02:02.833Z,99749.67
2018-12-16T11:04:29.194Z,99755.70
2018-12-16T11:06:55.520Z,99737.95
2018-12-16T11:09:21.817Z,99743.63
2018-12-16T11:11:48.969Z,99740.11
2018-12-16T11:14:15.296Z,99745.89
2018-12-16T11:16:41.470Z,99738.22
2018-12-16T11:19:07.596Z,99729.64
2018-12-16T11:21:34.040Z,99726.72
2018-12-16T11:24:00.410Z,99716.14
2018-12-16T11:26:27.414Z,99713.66
2018-12-16T11:28:53.743Z,99714.70
2018-12-16T11:31:19.952Z,99700.18
2018-12-16T11:33:46.050Z,99698.50
2018-12-16T11:36:12.367Z,99697.52
2018-12-16T11:38:40.448Z,99693.94
2018-12-16T11:41:06.608Z,99691.49
2018-12-16T11:43:32.816Z,99682.94
2018-12-16T11:45:59.068Z,99688.28
2018-12-16T11:48:26.386Z,99674.80
2018-12-16T11:50:53.861Z,99670.11
2018-12-16T11:53:27.062Z,99670.11
2018-12-16T11:55:55.622Z,99671.27
2018-12-16T11:58:21.871Z,99670.70
2018-12-16T12:00:49.035Z,99663.98
2018-12-16T12:03:15.304Z,99614.98
2018-12-16T12:05:41.433Z,99665.54
2018-12-16T12:08:07.712Z,99674.74
2018-12-16T12:10:34.614Z,99670.01
2018-12-16T12:13:00.891Z,99672.87
2018-12-16T12:15:27.142Z,99665.82
2018-12-16T12:17:53.497Z,99670.02
2018-12-16T12:20:20.683Z,99670.11
2018-12-16T12:22:46.934Z,99681.47
2018-12-16T12:25:19.659Z,99677.31
2018-12-16T12:27:41.305Z,99690.21
2018-12-16T12:30:07.693Z,99682.16
2018-12-16T12:32:33.849Z,99682.09
2018-12-16T12:35:00.811Z,99681.36
2018-12-16T12:37:28.250Z,99677.05
2018-12-16T12:39:54.463Z,99667.98
2018-12-16T12:42:22.917Z,99664.06
2018-12-16T12:44:49.218Z,99667.31
2018-12-16T12:47:16.343Z,99662.16
2018-12-16T12:49:45.124Z,99651.30
2018-12-16T12:52:11.710Z,99655.37
2018-12-16T12:54:37.838Z,99650.91
2018-12-16T12:57:07.075Z,99651.05
2018-12-16T12:59:34.063Z,99653.97
2018-12-16T13:02:01.190Z,99649.86
2018-12-16T13:04:27.322Z,99664.11
2018-12-16T13:06:53.555Z,99659.31
2018-12-16T13:09:19.772Z,99660.26
2018-12-16T13:11:46.834Z,99661.86
2018-12-16T13:14:13.516Z,99662.09
2018-12-16T13:16:39.723Z,99665.69
2018-12-16T13:19:05.821Z,99659.52
2018-12-16T13:21:32.287Z,99657.62
2018-12-16T13:23:58.518Z,99663.18
2018-12-16T13:26:24.900Z,99660.72
2018-12-16T13:28:51.055Z,99654.56
2018-12-16T13:31:17.319Z,99656.13
2018-12-16T13:33:43.491Z,99652.83
2018-12-16T13:36:10.042Z,99647.73
2018-12-16T13:38:37.960Z,99651.45
2018-12-16T13:41:04.197Z,99654.03
2018-12-16T13:43:30.489Z,99651.19
2018-12-16T13:45:56.617Z,99656.13
2018-12-16T13:48:22.864Z,99670.48
2018-12-16T13:50:49.102Z,99669.34
2018-12-16T13:53:15.258Z,99671.53
2018-12-16T13:55:41.474Z,99670.25
2018-12-16T13:58:09.682Z,99671.66
2018-12-16T14:00:35.957Z,99673.22
2018-12-16T14:03:03.046Z,99671.02
2018-12-16T14:05:30.042Z,99670.81
2018-12-16T14:07:57.690Z,99663.79
2018-12-16T14:10:23.893Z,99656.80
2018-12-16T14:12:50.778Z,99653.09
2018-12-16T14:15:17.209Z,99651.58
2018-12-16T14:17:43.660Z,99649.56
2018-12-16T14:20:09.824Z,99656.66
2018-12-16T14:22:36.252Z,99658.21
2018-12-16T14:25:03.812Z,99657.22
2018-12-16T14:27:30.958Z,99653.77
2018-12-16T14:29:57.174Z,99665.91
2018-12-16T14:32:23.531Z,99668.20
2018-12-16T14:34:50.581Z,99655.25
2018-12-16T14:37:16.835Z,99658.86
2018-12-16T14:39:43.754Z,99651.37
2018-12-16T14:42:09.928Z,99651.98
2018-12-16T14:44:37.089Z,99653.53
2018-12-16T14:47:03.368Z,99652.42
2018-12-16T14:49:29.761Z,99659.97
2018-12-16T14:51:57.044Z,99650.11
2018-12-16T14:54:23.319Z,99643.47
2018-12-16T14:56:49.579Z,99638.52
2018-12-16T14:59:17.331Z,99632.83
2018-12-16T15:01:44.589Z,99637.89
2018-12-16T15:04:19.038Z,99635.72
2018-12-16T15:06:45.357Z,99638.24
2018-12-16T15:09:11.701Z,99641.27
2018-12-16T15:11:38.024Z,99628.02
2018-12-16T15:14:05.148Z,99635.72
2018-12-16T15:16:31.484Z,99646.12
2018-12-16T15:18:58.368Z,99648.21
2018-12-16T15:21:25.617Z,99648.66
2018-12-16T15:23:51.869Z,99649.72
2018-12-16T15:26:19.171Z,99650.44
2018-12-16T15:28:45.377Z,99649.87
2018-12-16T15:31:12.189Z,99650.95
2018-12-16T15:33:38.398Z,99645.05
2018-12-16T15:36:04.645Z,99642.92
2018-12-16T15:38:30.790Z,99647.42
2018-12-16T15:40:56.900Z,99647.38
2018-12-16T15:43:23.128Z,99640.16
2018-12-16T15:45:49.261Z,99643.37
2018-12-16T15:48:15.507Z,99645.30
2018-12-16T15:50:43.433Z,99644.61
2018-12-16T15:53:09.701Z,99649.78
2018-12-16T15:55:36.998Z,99648.66
2018-12-16T15:58:03.421Z,99648.27
2018-12-16T16:00:29.534Z,99659.97
2018-12-16T16:02:56.657Z,99661.55
2018-12-16T16:05:23.645Z,99653.09
2018-12-16T16:07:49.740Z,99655.84
2018-12-16T16:10:16.035Z,99659.23
2018-12-16T16:12:42.317Z,99658.12
2018-12-16T16:15:08.679Z,99661.52
2018-12-16T16:17:34.908Z,99662.45
2018-12-16T16:20:01.250Z,99664.95
2018-12-16T16:22:27.570Z,99672.42
2018-12-16T16:24:53.724Z,99674.97
2018-12-16T16:27:20.615Z,99673.95
2018-12-16T16:29:53.862Z,99669.73
2018-12-16T16:32:20.053Z,99669.38
2018-12-16T16:34:46.322Z,99669.73
2018-12-16T16:37:12.676Z,99672.71
2018-12-16T16:39:39.616Z,99669.48
2018-12-16T16:42:05.858Z,99674.18
2018-12-16T16:44:32.891Z,99674.41
2018-12-16T16:46:59.928Z,99676.41
2018-12-16T16:49:26.116Z,99677.05
2018-12-16T16:51:52.403Z,99691.90
2018-12-16T16:54:18.679Z,99687.51
2018-12-16T16:56:45.056Z,99692.38
2018-12-16T16:59:11.245Z,99696.77
2018-12-16T17:01:37.620Z,99697.01
2018-12-16T17:04:03.936Z,99701.82
2018-12-16T17:06:31.279Z,99704.55
2018-12-16T17:08:57.440Z,99708.13
2018-12-16T17:11:24.648Z,99707.17
2018-12-16T17:13:51.194Z,99701.18
2018-12-16T17:16:17.390Z,99708.43
2018-12-16T17:18:44.083Z,99714.84
2018-12-16T17:21:10.345Z,99710.56
2018-12-16T17:23:36.494Z,99717.94
2018-12-16T17:26:03.576Z,99719.71
2018-12-16T17:28:31.179Z,99722.36
2018-12-16T17:31:00.754Z,99723.50
2018-12-16T17:33:26.894Z,99727.26
2018-12-16T17:35:53.287Z,99728.16
2018-12-16T17:38:20.647Z,99730.87
2018-12-16T17:40:46.943Z,99730.27
2018-12-16T17:43:13.962Z,99731.20
2018-12-16T17:45:40.767Z,99731.18
2018-12-16T17:48:06.991Z,99740.00
2018-12-16T17:50:34.067Z,99736.12
2018-12-16T17:53:00.476Z,99735.78
2018-12-16T17:55:26.699Z,99740.39
2018-12-16T17:57:53.315Z,99741.41
2018-12-16T18:00:22.692Z,99743.61
2018-12-16T18:02:49.128Z,99747.86
2018-12-16T18:05:15.434Z,99748.72
2018-12-16T18:07:41.667Z,99751.19
2018-12-16T18:10:08.007Z,99742.98
2018-12-16T18:12:34.329Z,99751.50
2018-12-16T18:15:01.560Z,99746.66
2018-12-16T18:17:27.732Z,99746.86
2018-12-16T18:19:54.924Z,99754.71
2018-12-16T18:22:21.166Z,99754.66
2018-12-16T18:24:47.345Z,99760.43
2018-12-16T18:27:13.543Z,99763.27
2018-12-16T18:29:39.735Z,99762.97
2018-12-16T18:32:06.124Z,99767.11
2018-12-16T18:34:32.405Z,99769.64
2018-12-16T18:36:58.626Z,99772.48
2018-12-16T18:39:24.997Z,99771.05
2018-12-16T18:41:51.666Z,99777.63
2018-12-16T18:44:18.047Z,99772.26
2018-12-16T18:46:44.370Z,99781.45
2018-12-16T18:49:10.870Z,99776.34
2018-12-16T18:51:37.133Z,99783.16
2018-12-16T18:54:03.490Z,99782.81
2018-12-16T18:56:29.691Z,99772.88
2018-12-16T18:58:55.966Z,99770.25
2018-12-16T19:01:22.246Z,99771.78
2018-12-16T19:03:48.422Z,99776.05
2018-12-16T19:06:14.850Z,99774.52
2018-12-16T19:08:41.012Z,99772.53
2018-12-16T19:11:07.227Z,99774.20
2018-12-16T19:13:33.493Z,99777.14
2018-12-16T19:15:59.706Z,99776.38
2018-12-16T19:18:27.164Z,99774.31
2018-12-16T19:20:53.558Z,99769.84
2018-12-16T19:23:19.739Z,99774.45
2018-12-16T19:25:45.904Z,99766.17
2018-12-16T19:28:12.202Z,99762.38
2018-12-16T19:30:38.634Z,99755.05
2018-12-16T19:33:05.095Z,99750.62
2018-12-16T19:35:31.284Z,99751.71
2018-12-16T19:37:57.563Z,99751.02
2018-12-16T19:40:23.873Z,99754.58
2018-12-16T19:42:50.382Z,99754.68
2018-12-16T19:45:23.624Z,99749.58
2018-12-16T19:47:49.951Z,99756.87
2018-12-16T19:50:16.230Z,99760.59
2018-12-16T19:52:42.460Z,99759.94
2018-12-16T19:55:08.954Z,99756.03
2018-12-16T19:57:35.242Z,99751.13
2018-12-16T20:00:08.603Z,99750.50
2018-12-16T20:02:34.727Z,99760.19
2018-12-16T20:05:03.013Z,99726.32
2018-12-16T20:07:29.161Z,99758.19
2018-12-16T20:09:55.406Z,99764.84
2018-12-16T20:12:21.582Z,99766.91
2018-12-16T20:14:48.007Z,99760.12
2018-12-16T20:17:14.435Z,99763.55
2018-12-16T20:19:40.642Z,99764.37
2018-12-16T20:22:06.801Z,99773.34
2018-12-16T20:24:33.135Z,99773.23
2018-12-16T20:26:59.402Z,99770.63
2018-12-16T20:29:25.757Z,99774.95
2018-12-16T20:31:52.157Z,99776.95
2018-12-16T20:34:20.363Z,99767.67
2018-12-16T20:36:46.557Z,99773.97
2018-12-16T20:39:12.762Z,99777.00
2018-12-16T20:41:39.089Z,99788.26
2018-12-16T20:44:05.431Z,99775.50
2018-12-16T20:46:31.856Z,99773.97
2018-12-16T20:48:58.089Z,99778.51
2018-12-16T20:51:24.353Z,99755.50
2018-12-16T20:53:50.730Z,99782.20
2018-12-16T20:56:16.917Z,99781.78
2018-12-16T20:58:43.201Z,99781.94
2018-12-16T21:01:16.494Z,99775.86
2018-12-16T21:03:42.906Z,99780.10
2018-12-16T21:06:09.215Z,99776.55
2018-12-16T21:08:35.513Z,99779.80
2018-12-16T21:11:03.953Z,99778.77
2018-12-16T21:13:36.430Z,99778.48
2018-12-16T21:16:09.016Z,99772.30
2018-12-16T21:18:35.513Z,99780.85
2018-12-16T21:21:01.725Z,99781.13
2018-12-16T21:23:28.153Z,99780.85
2018-12-16T21:25:54.336Z,99785.45
2018-12-16T21:28:20.570Z,99783.49
2018-12-16T21:30:46.845Z,99783.59
2018-12-16T21:33:13.018Z,99785.13
2018-12-16T21:35:39.303Z,99780.98
2018-12-16T21:38:05.538Z,99784.31
2018-12-16T21:40:31.889Z,99791.47
2018-12-16T21:42:58.171Z,99787.89
2018-12-16T21:45:24.505Z,99786.30
2018-12-16T21:47:50.658Z,99797.64
2018-12-16T21:50:16.783Z,99792.47
2018-12-16T21:52:42.980Z,99796.08
2018-12-16T21:55:09.181Z,99800.41
2018-12-16T21:57:35.306Z,99794.78
2018-12-16T22:00:01.879Z,99795.84
2018-12-16T22:02:28.255Z,99796.29
2018-12-16T22:04:54.430Z,99798.45
2018-12-16T22:07:20.586Z,99800.53
2018-12-16T22:09:46.811Z,99792.34
2018-12-16T22:12:13.016Z,99797.06
2018-12-16T22:14:39.181Z,99798.81
2018-12-16T22:17:05.514Z,99800.47
2018-12-16T22:19:31.619Z,99800.38
2018-12-16T22:21:57.733Z,99803.59
2018-12-16T22:24:23.921Z,99803.53
2018-12-16T22:26:50.181Z,99810.22
2018-12-16T22:29:16.309Z,99811.30
2018-12-16T22:31:42.482Z,99813.49
2018-12-16T22:34:08.706Z,99808.83
2018-12-16T22:36:34.856Z,99812.17
2018-12-16T22:39:01.107Z,99811.39
2018-12-16T22:41:27.344Z,99807.30
2018-12-16T22:43:54.037Z,99808.31
2018-12-16T22:46:20.578Z,99799.77
2018-12-16T22:48:46.698Z,99805.17
2018-12-16T22:51:12.863Z,99808.83
2018-12-16T22:53:39.006Z,99805.33
2018-12-16T22:56:05.207Z,99802.13
2018-12-16T22:58:31.517Z,99809.26
2018-12-16T23:01:04.026Z,99804.41
2018-12-16T23:03:30.281Z,99800.14
2018-12-16T23:05:56.383Z,99803.23
2018-12-16T23:08:22.493Z,99810.22
2018-12-16T23:10:48.844Z,99806.69
2018-12-16T23:13:14.952Z,99807.08
2018-12-16T23:15:41.091Z,99806.12
2018-12-16T23:18:07.427Z,99805.28
2018-12-16T23:20:33.645Z,99802.75
2018-12-16T23:22:59.768Z,99804.22
2018-12-16T23:25:26.102Z,99801.61
2018-12-16T23:27:54.300Z,99796.45
2018-12-16T23:30:20.513Z,99793.67
2018-12-16T23:32:46.758Z,99789.36
2018-12-16T23:35:13.117Z,99799.65
2018-12-16T23:37:39.439Z,99801.61
2018-12-16T23:40:05.846Z,99798.48
2018-12-16T23:42:32.072Z,99799.55
2018-12-16T23:44:58.183Z,99804.88
2018-12-16T23:47:24.400Z,99795.72
2018-12-16T23:49:50.640Z,99803.76
2018-12-16T23:52:16.777Z,99802.35
2018-12-16T23:54:44.436Z,99798.81
2018-12-16T23:57:10.921Z,99807.09
2018-12-16T23:59:37.066Z,99818.28
